sensor_id;sensor_type;location;lat;lon;timestamp;P1;durP1;ratioP1;P2;durP2;ratioP2
57826;SDS011;43656;57.746;11.780;2024-03-02T00:00:05;75.78;;;40.97;;
57826;SDS011;43656;57.746;11.780;2024-03-02T00:02:42;77.32;;;39.42;;
57826;SDS011;43656;57.746;11.780;2024-03-02T00:05:13;75.22;;;38.88;;
57826;SDS011;43656;57.746;11.780;2024-03-02T00:07:44;78.95;;;40.20;;
57826;SDS011;43656;57.746;11.780;2024-03-02T00:10:13;85.20;;;41.00;;
57826;SDS011;43656;57.746;11.780;2024-03-02T00:12:41;80.88;;;39.60;;
57826;SDS011;43656;57.746;11.780;2024-03-02T00:18:13;82.15;;;40.25;;
57826;SDS011;43656;57.746;11.780;2024-03-02T00:20:41;83.50;;;40.75;;
57826;SDS011;43656;57.746;11.780;2024-03-02T00:23:07;78.32;;;40.55;;
57826;SDS011;43656;57.746;11.780;2024-03-02T00:25:38;83.72;;;40.45;;
57826;SDS011;43656;57.746;11.780;2024-03-02T00:28:04;82.13;;;41.03;;
57826;SDS011;43656;57.746;11.780;2024-03-02T00:33:07;79.65;;;38.95;;
57826;SDS011;43656;57.746;11.780;2024-03-02T00:35:33;86.22;;;41.13;;
57826;SDS011;43656;57.746;11.780;2024-03-02T00:38:03;86.82;;;42.58;;
57826;SDS011;43656;57.746;11.780;2024-03-02T00:40:29;85.13;;;39.75;;
57826;SDS011;43656;57.746;11.780;2024-03-02T00:42:55;75.25;;;40.63;;
57826;SDS011;43656;57.746;11.780;2024-03-02T00:45:21;84.15;;;41.80;;
57826;SDS011;43656;57.746;11.780;2024-03-02T00:47:46;82.47;;;41.70;;
57826;SDS011;43656;57.746;11.780;2024-03-02T00:50:12;75.45;;;39.63;;
57826;SDS011;43656;57.746;11.780;2024-03-02T00:52:39;83.22;;;40.80;;
57826;SDS011;43656;57.746;11.780;2024-03-02T00:55:07;81.35;;;39.80;;
57826;SDS011;43656;57.746;11.780;2024-03-02T00:57:33;87.35;;;41.22;;
57826;SDS011;43656;57.746;11.780;2024-03-02T00:59:59;81.30;;;39.72;;
57826;SDS011;43656;57.746;11.780;2024-03-02T01:02:25;84.43;;;40.33;;
57826;SDS011;43656;57.746;11.780;2024-03-02T01:04:51;79.68;;;39.22;;
57826;SDS011;43656;57.746;11.780;2024-03-02T01:07:17;80.72;;;38.95;;
57826;SDS011;43656;57.746;11.780;2024-03-02T01:09:42;75.93;;;38.35;;
57826;SDS011;43656;57.746;11.780;2024-03-02T01:12:08;76.45;;;38.50;;
57826;SDS011;43656;57.746;11.780;2024-03-02T01:14:33;74.03;;;38.63;;
57826;SDS011;43656;57.746;11.780;2024-03-02T01:16:59;79.03;;;39.05;;
57826;SDS011;43656;57.746;11.780;2024-03-02T01:19:25;80.10;;;39.45;;
57826;SDS011;43656;57.746;11.780;2024-03-02T01:21:50;74.80;;;38.78;;
57826;SDS011;43656;57.746;11.780;2024-03-02T01:24:16;81.88;;;38.63;;
57826;SDS011;43656;57.746;11.780;2024-03-02T01:26:41;77.55;;;39.05;;
57826;SDS011;43656;57.746;11.780;2024-03-02T01:29:07;81.97;;;40.40;;
57826;SDS011;43656;57.746;11.780;2024-03-02T01:31:33;79.05;;;38.78;;
57826;SDS011;43656;57.746;11.780;2024-03-02T01:33:58;76.10;;;39.72;;
57826;SDS011;43656;57.746;11.780;2024-03-02T01:36:23;75.57;;;39.67;;
57826;SDS011;43656;57.746;11.780;2024-03-02T01:38:49;82.18;;;40.05;;
57826;SDS011;43656;57.746;11.780;2024-03-02T01:41:15;85.50;;;41.17;;
57826;SDS011;43656;57.746;11.780;2024-03-02T01:43:40;84.53;;;40.38;;
57826;SDS011;43656;57.746;11.780;2024-03-02T01:46:06;81.75;;;40.63;;
57826;SDS011;43656;57.746;11.780;2024-03-02T01:48:33;78.05;;;40.13;;
57826;SDS011;43656;57.746;11.780;2024-03-02T01:50:59;75.90;;;39.13;;
57826;SDS011;43656;57.746;11.780;2024-03-02T01:53:24;84.63;;;40.03;;
57826;SDS011;43656;57.746;11.780;2024-03-02T01:55:50;79.95;;;39.97;;
57826;SDS011;43656;57.746;11.780;2024-03-02T01:58:16;81.68;;;38.58;;
57826;SDS011;43656;57.746;11.780;2024-03-02T02:00:41;79.75;;;40.40;;
57826;SDS011;43656;57.746;11.780;2024-03-02T02:03:07;75.53;;;37.92;;
57826;SDS011;43656;57.746;11.780;2024-03-02T02:05:33;75.03;;;37.67;;
57826;SDS011;43656;57.746;11.780;2024-03-02T02:08:00;78.18;;;38.20;;
57826;SDS011;43656;57.746;11.780;2024-03-02T02:10:26;75.93;;;39.08;;
57826;SDS011;43656;57.746;11.780;2024-03-02T02:12:51;74.45;;;37.28;;
57826;SDS011;43656;57.746;11.780;2024-03-02T02:17:49;77.30;;;37.97;;
57826;SDS011;43656;57.746;11.780;2024-03-02T02:20:14;78.45;;;37.58;;
57826;SDS011;43656;57.746;11.780;2024-03-02T02:22:40;73.93;;;37.55;;
57826;SDS011;43656;57.746;11.780;2024-03-02T02:25:05;73.80;;;37.28;;
57826;SDS011;43656;57.746;11.780;2024-03-02T02:27:31;78.53;;;37.92;;
57826;SDS011;43656;57.746;11.780;2024-03-02T02:29:56;73.90;;;37.15;;
57826;SDS011;43656;57.746;11.780;2024-03-02T02:32:22;76.43;;;38.55;;
57826;SDS011;43656;57.746;11.780;2024-03-02T02:34:51;82.55;;;37.42;;
57826;SDS011;43656;57.746;11.780;2024-03-02T02:37:17;73.70;;;37.97;;
57826;SDS011;43656;57.746;11.780;2024-03-02T02:39:42;76.00;;;37.67;;
57826;SDS011;43656;57.746;11.780;2024-03-02T02:42:08;76.60;;;37.42;;
57826;SDS011;43656;57.746;11.780;2024-03-02T02:44:34;77.68;;;37.60;;
57826;SDS011;43656;57.746;11.780;2024-03-02T02:47:00;72.90;;;35.65;;
57826;SDS011;43656;57.746;11.780;2024-03-02T02:49:26;78.90;;;37.83;;
57826;SDS011;43656;57.746;11.780;2024-03-02T02:51:52;73.95;;;35.55;;
57826;SDS011;43656;57.746;11.780;2024-03-02T02:54:17;73.82;;;36.13;;
57826;SDS011;43656;57.746;11.780;2024-03-02T02:56:43;72.07;;;36.08;;
57826;SDS011;43656;57.746;11.780;2024-03-02T02:59:08;75.68;;;36.13;;
57826;SDS011;43656;57.746;11.780;2024-03-02T03:01:34;77.18;;;36.72;;
57826;SDS011;43656;57.746;11.780;2024-03-02T03:03:59;70.95;;;35.80;;
57826;SDS011;43656;57.746;11.780;2024-03-02T03:06:24;75.38;;;36.90;;
57826;SDS011;43656;57.746;11.780;2024-03-02T03:08:50;80.70;;;36.50;;
57826;SDS011;43656;57.746;11.780;2024-03-02T03:11:15;73.65;;;37.60;;
57826;SDS011;43656;57.746;11.780;2024-03-02T03:13:42;69.20;;;35.08;;
57826;SDS011;43656;57.746;11.780;2024-03-02T03:16:07;75.45;;;36.58;;
57826;SDS011;43656;57.746;11.780;2024-03-02T03:18:33;73.57;;;37.42;;
57826;SDS011;43656;57.746;11.780;2024-03-02T03:20:59;71.18;;;36.33;;
57826;SDS011;43656;57.746;11.780;2024-03-02T03:23:24;69.15;;;33.92;;
57826;SDS011;43656;57.746;11.780;2024-03-02T03:25:51;76.65;;;36.47;;
57826;SDS011;43656;57.746;11.780;2024-03-02T03:28:16;74.30;;;35.53;;
57826;SDS011;43656;57.746;11.780;2024-03-02T03:30:41;74.03;;;36.28;;
57826;SDS011;43656;57.746;11.780;2024-03-02T03:33:07;72.00;;;34.58;;
57826;SDS011;43656;57.746;11.780;2024-03-02T03:35:32;72.72;;;35.63;;
57826;SDS011;43656;57.746;11.780;2024-03-02T03:37:58;70.40;;;35.28;;
57826;SDS011;43656;57.746;11.780;2024-03-02T03:40:23;67.15;;;34.38;;
57826;SDS011;43656;57.746;11.780;2024-03-02T03:42:49;69.95;;;34.55;;
57826;SDS011;43656;57.746;11.780;2024-03-02T03:45:15;71.35;;;34.75;;
57826;SDS011;43656;57.746;11.780;2024-03-02T03:47:41;64.95;;;33.95;;
57826;SDS011;43656;57.746;11.780;2024-03-02T03:50:07;67.00;;;33.22;;
57826;SDS011;43656;57.746;11.780;2024-03-02T03:52:33;70.93;;;34.72;;
57826;SDS011;43656;57.746;11.780;2024-03-02T03:54:59;76.97;;;35.60;;
57826;SDS011;43656;57.746;11.780;2024-03-02T03:57:25;77.25;;;35.78;;
57826;SDS011;43656;57.746;11.780;2024-03-02T03:59:51;74.35;;;36.78;;
57826;SDS011;43656;57.746;11.780;2024-03-02T04:02:17;76.43;;;36.40;;
57826;SDS011;43656;57.746;11.780;2024-03-02T04:04:42;76.55;;;34.42;;
57826;SDS011;43656;57.746;11.780;2024-03-02T04:07:08;70.90;;;34.33;;
57826;SDS011;43656;57.746;11.780;2024-03-02T04:09:34;73.90;;;35.35;;
57826;SDS011;43656;57.746;11.780;2024-03-02T04:11:59;71.90;;;35.65;;
57826;SDS011;43656;57.746;11.780;2024-03-02T04:14:24;77.28;;;35.95;;
57826;SDS011;43656;57.746;11.780;2024-03-02T04:16:50;74.13;;;36.53;;
57826;SDS011;43656;57.746;11.780;2024-03-02T04:19:15;70.53;;;35.28;;
57826;SDS011;43656;57.746;11.780;2024-03-02T04:21:40;74.60;;;36.47;;
57826;SDS011;43656;57.746;11.780;2024-03-02T04:24:06;80.25;;;37.25;;
57826;SDS011;43656;57.746;11.780;2024-03-02T04:26:32;75.68;;;36.20;;
57826;SDS011;43656;57.746;11.780;2024-03-02T04:28:57;74.05;;;34.80;;
57826;SDS011;43656;57.746;11.780;2024-03-02T04:31:24;68.78;;;35.95;;
57826;SDS011;43656;57.746;11.780;2024-03-02T04:33:49;79.07;;;34.97;;
57826;SDS011;43656;57.746;11.780;2024-03-02T04:36:15;80.28;;;35.90;;
57826;SDS011;43656;57.746;11.780;2024-03-02T04:38:40;71.38;;;34.58;;
57826;SDS011;43656;57.746;11.780;2024-03-02T04:41:06;71.47;;;33.97;;
57826;SDS011;43656;57.746;11.780;2024-03-02T04:43:32;70.28;;;35.72;;
57826;SDS011;43656;57.746;11.780;2024-03-02T04:45:58;76.93;;;35.13;;
57826;SDS011;43656;57.746;11.780;2024-03-02T04:48:24;74.28;;;34.20;;
57826;SDS011;43656;57.746;11.780;2024-03-02T04:50:49;68.32;;;34.03;;
57826;SDS011;43656;57.746;11.780;2024-03-02T04:53:15;76.78;;;34.67;;
57826;SDS011;43656;57.746;11.780;2024-03-02T04:55:40;77.18;;;34.17;;
57826;SDS011;43656;57.746;11.780;2024-03-02T04:58:06;71.82;;;34.42;;
57826;SDS011;43656;57.746;11.780;2024-03-02T05:00:34;74.70;;;35.05;;
57826;SDS011;43656;57.746;11.780;2024-03-02T05:03:00;72.22;;;34.08;;
57826;SDS011;43656;57.746;11.780;2024-03-02T05:05:27;71.75;;;34.55;;
57826;SDS011;43656;57.746;11.780;2024-03-02T05:07:52;69.60;;;33.53;;
57826;SDS011;43656;57.746;11.780;2024-03-02T05:10:18;70.15;;;32.38;;
57826;SDS011;43656;57.746;11.780;2024-03-02T05:12:43;68.88;;;33.95;;
57826;SDS011;43656;57.746;11.780;2024-03-02T05:15:12;66.22;;;32.83;;
57826;SDS011;43656;57.746;11.780;2024-03-02T05:17:39;63.25;;;31.25;;
57826;SDS011;43656;57.746;11.780;2024-03-02T05:20:08;67.03;;;32.67;;
57826;SDS011;43656;57.746;11.780;2024-03-02T05:22:34;70.10;;;32.78;;
57826;SDS011;43656;57.746;11.780;2024-03-02T05:25:00;68.13;;;32.35;;
57826;SDS011;43656;57.746;11.780;2024-03-02T05:27:26;66.93;;;30.98;;
57826;SDS011;43656;57.746;11.780;2024-03-02T05:29:52;66.13;;;31.33;;
57826;SDS011;43656;57.746;11.780;2024-03-02T05:32:17;67.03;;;32.47;;
57826;SDS011;43656;57.746;11.780;2024-03-02T05:34:43;64.85;;;32.47;;
57826;SDS011;43656;57.746;11.780;2024-03-02T05:37:08;70.50;;;32.45;;
57826;SDS011;43656;57.746;11.780;2024-03-02T05:39:34;69.28;;;32.05;;
57826;SDS011;43656;57.746;11.780;2024-03-02T05:41:59;68.85;;;32.40;;
57826;SDS011;43656;57.746;11.780;2024-03-02T05:44:24;68.93;;;31.88;;
57826;SDS011;43656;57.746;11.780;2024-03-02T05:46:50;64.90;;;30.58;;
57826;SDS011;43656;57.746;11.780;2024-03-02T05:49:15;63.25;;;31.52;;
57826;SDS011;43656;57.746;11.780;2024-03-02T05:51:41;67.57;;;31.85;;
57826;SDS011;43656;57.746;11.780;2024-03-02T05:54:06;62.78;;;32.33;;
57826;SDS011;43656;57.746;11.780;2024-03-02T05:56:32;70.00;;;33.03;;
57826;SDS011;43656;57.746;11.780;2024-03-02T05:58:57;60.30;;;31.25;;
57826;SDS011;43656;57.746;11.780;2024-03-02T06:01:37;62.00;;;30.67;;
57826;SDS011;43656;57.746;11.780;2024-03-02T06:04:07;59.63;;;30.73;;
57826;SDS011;43656;57.746;11.780;2024-03-02T06:06:33;63.97;;;30.73;;
57826;SDS011;43656;57.746;11.780;2024-03-02T06:08:59;66.63;;;31.45;;
57826;SDS011;43656;57.746;11.780;2024-03-02T06:11:49;67.40;;;31.83;;
57826;SDS011;43656;57.746;11.780;2024-03-02T06:14:16;62.75;;;32.25;;
57826;SDS011;43656;57.746;11.780;2024-03-02T06:16:41;65.57;;;32.05;;
57826;SDS011;43656;57.746;11.780;2024-03-02T06:19:07;66.97;;;31.80;;
57826;SDS011;43656;57.746;11.780;2024-03-02T06:21:32;64.38;;;31.17;;
57826;SDS011;43656;57.746;11.780;2024-03-02T06:23:58;65.35;;;31.20;;
57826;SDS011;43656;57.746;11.780;2024-03-02T06:26:23;62.10;;;30.75;;
57826;SDS011;43656;57.746;11.780;2024-03-02T06:28:49;64.63;;;31.80;;
57826;SDS011;43656;57.746;11.780;2024-03-02T06:31:14;68.80;;;31.65;;
57826;SDS011;43656;57.746;11.780;2024-03-02T06:33:40;67.03;;;32.78;;
57826;SDS011;43656;57.746;11.780;2024-03-02T06:36:06;74.70;;;33.03;;
57826;SDS011;43656;57.746;11.780;2024-03-02T06:38:36;71.10;;;33.70;;
57826;SDS011;43656;57.746;11.780;2024-03-02T06:41:02;74.15;;;34.15;;
57826;SDS011;43656;57.746;11.780;2024-03-02T06:43:27;70.72;;;33.58;;
57826;SDS011;43656;57.746;11.780;2024-03-02T06:45:53;71.45;;;35.05;;
57826;SDS011;43656;57.746;11.780;2024-03-02T06:48:18;72.03;;;34.42;;
57826;SDS011;43656;57.746;11.780;2024-03-02T06:50:49;73.65;;;33.00;;
57826;SDS011;43656;57.746;11.780;2024-03-02T06:53:15;74.72;;;34.53;;
57826;SDS011;43656;57.746;11.780;2024-03-02T06:55:44;74.47;;;34.22;;
57826;SDS011;43656;57.746;11.780;2024-03-02T06:58:11;77.10;;;34.80;;
57826;SDS011;43656;57.746;11.780;2024-03-02T07:00:40;76.88;;;36.85;;
57826;SDS011;43656;57.746;11.780;2024-03-02T07:03:06;75.47;;;35.53;;
57826;SDS011;43656;57.746;11.780;2024-03-02T07:05:31;74.70;;;36.92;;
57826;SDS011;43656;57.746;11.780;2024-03-02T07:07:56;84.75;;;39.22;;
57826;SDS011;43656;57.746;11.780;2024-03-02T07:10:22;76.85;;;36.75;;
57826;SDS011;43656;57.746;11.780;2024-03-02T07:12:48;80.63;;;36.67;;
57826;SDS011;43656;57.746;11.780;2024-03-02T07:15:13;77.00;;;35.70;;
57826;SDS011;43656;57.746;11.780;2024-03-02T07:17:57;70.82;;;32.58;;
57826;SDS011;43656;57.746;11.780;2024-03-02T07:20:22;74.63;;;36.05;;
57826;SDS011;43656;57.746;11.780;2024-03-02T07:22:48;73.07;;;35.38;;
57826;SDS011;43656;57.746;11.780;2024-03-02T07:25:13;83.25;;;38.90;;
57826;SDS011;43656;57.746;11.780;2024-03-02T07:27:39;81.28;;;37.45;;
57826;SDS011;43656;57.746;11.780;2024-03-02T07:30:05;79.10;;;39.17;;
57826;SDS011;43656;57.746;11.780;2024-03-02T07:32:32;82.72;;;38.10;;
57826;SDS011;43656;57.746;11.780;2024-03-02T07:34:58;76.55;;;37.15;;
57826;SDS011;43656;57.746;11.780;2024-03-02T07:37:26;75.90;;;36.53;;
57826;SDS011;43656;57.746;11.780;2024-03-02T07:39:52;81.40;;;37.10;;
57826;SDS011;43656;57.746;11.780;2024-03-02T07:42:17;67.15;;;35.15;;
57826;SDS011;43656;57.746;11.780;2024-03-02T07:44:46;72.03;;;35.50;;
57826;SDS011;43656;57.746;11.780;2024-03-02T07:47:11;69.30;;;36.05;;
57826;SDS011;43656;57.746;11.780;2024-03-02T07:49:36;74.97;;;37.25;;
57826;SDS011;43656;57.746;11.780;2024-03-02T07:52:02;72.70;;;37.05;;
57826;SDS011;43656;57.746;11.780;2024-03-02T07:54:27;71.25;;;35.60;;
57826;SDS011;43656;57.746;11.780;2024-03-02T07:56:53;71.75;;;36.15;;
57826;SDS011;43656;57.746;11.780;2024-03-02T07:59:18;76.05;;;36.00;;
57826;SDS011;43656;57.746;11.780;2024-03-02T08:01:44;71.82;;;35.25;;
57826;SDS011;43656;57.746;11.780;2024-03-02T08:04:09;66.00;;;33.15;;
57826;SDS011;43656;57.746;11.780;2024-03-02T08:06:35;71.85;;;35.47;;
57826;SDS011;43656;57.746;11.780;2024-03-02T08:09:01;66.63;;;34.90;;
57826;SDS011;43656;57.746;11.780;2024-03-02T08:11:26;70.43;;;36.25;;
57826;SDS011;43656;57.746;11.780;2024-03-02T08:13:52;69.03;;;35.78;;
57826;SDS011;43656;57.746;11.780;2024-03-02T08:16:19;69.07;;;35.17;;
57826;SDS011;43656;57.746;11.780;2024-03-02T08:18:49;70.82;;;36.45;;
57826;SDS011;43656;57.746;11.780;2024-03-02T08:21:15;69.97;;;35.33;;
57826;SDS011;43656;57.746;11.780;2024-03-02T08:23:41;72.68;;;36.75;;
57826;SDS011;43656;57.746;11.780;2024-03-02T08:26:08;66.03;;;34.47;;
57826;SDS011;43656;57.746;11.780;2024-03-02T08:28:34;74.18;;;36.55;;
57826;SDS011;43656;57.746;11.780;2024-03-02T08:30:59;64.95;;;35.53;;
57826;SDS011;43656;57.746;11.780;2024-03-02T08:33:25;69.55;;;35.15;;
57826;SDS011;43656;57.746;11.780;2024-03-02T08:35:50;64.93;;;34.92;;
57826;SDS011;43656;57.746;11.780;2024-03-02T08:38:16;67.07;;;35.00;;
57826;SDS011;43656;57.746;11.780;2024-03-02T08:40:41;67.97;;;35.63;;
57826;SDS011;43656;57.746;11.780;2024-03-02T08:43:07;68.80;;;36.55;;
57826;SDS011;43656;57.746;11.780;2024-03-02T08:45:32;67.95;;;35.35;;
57826;SDS011;43656;57.746;11.780;2024-03-02T08:47:59;64.65;;;35.85;;
57826;SDS011;43656;57.746;11.780;2024-03-02T08:50:25;65.82;;;36.10;;
57826;SDS011;43656;57.746;11.780;2024-03-02T08:52:50;64.28;;;35.75;;
57826;SDS011;43656;57.746;11.780;2024-03-02T08:55:16;63.53;;;34.70;;
57826;SDS011;43656;57.746;11.780;2024-03-02T08:57:41;66.63;;;36.10;;
57826;SDS011;43656;57.746;11.780;2024-03-02T09:00:07;64.28;;;35.67;;
57826;SDS011;43656;57.746;11.780;2024-03-02T09:02:33;66.25;;;35.03;;
57826;SDS011;43656;57.746;11.780;2024-03-02T09:04:59;60.53;;;34.78;;
57826;SDS011;43656;57.746;11.780;2024-03-02T09:07:25;67.90;;;36.55;;
57826;SDS011;43656;57.746;11.780;2024-03-02T09:09:50;66.55;;;36.78;;
57826;SDS011;43656;57.746;11.780;2024-03-02T09:12:15;65.05;;;36.53;;
57826;SDS011;43656;57.746;11.780;2024-03-02T09:14:41;62.28;;;36.20;;
57826;SDS011;43656;57.746;11.780;2024-03-02T09:17:06;65.43;;;37.85;;
57826;SDS011;43656;57.746;11.780;2024-03-02T09:19:33;57.80;;;36.05;;
57826;SDS011;43656;57.746;11.780;2024-03-02T09:21:58;59.00;;;34.63;;
57826;SDS011;43656;57.746;11.780;2024-03-02T09:24:24;61.08;;;36.53;;
57826;SDS011;43656;57.746;11.780;2024-03-02T09:26:49;59.83;;;33.75;;
57826;SDS011;43656;57.746;11.780;2024-03-02T09:29:15;63.63;;;36.20;;
57826;SDS011;43656;57.746;11.780;2024-03-02T09:31:40;61.50;;;36.03;;
57826;SDS011;43656;57.746;11.780;2024-03-02T09:34:07;58.97;;;35.85;;
57826;SDS011;43656;57.746;11.780;2024-03-02T09:36:32;61.13;;;35.95;;
57826;SDS011;43656;57.746;11.780;2024-03-02T09:38:58;61.72;;;36.20;;
57826;SDS011;43656;57.746;11.780;2024-03-02T09:41:23;65.68;;;36.67;;
57826;SDS011;43656;57.746;11.780;2024-03-02T09:43:49;62.10;;;36.03;;
57826;SDS011;43656;57.746;11.780;2024-03-02T09:46:15;63.47;;;36.85;;
57826;SDS011;43656;57.746;11.780;2024-03-02T09:48:40;63.53;;;38.97;;
57826;SDS011;43656;57.746;11.780;2024-03-02T09:51:06;60.97;;;35.55;;
57826;SDS011;43656;57.746;11.780;2024-03-02T09:53:33;57.17;;;34.97;;
57826;SDS011;43656;57.746;11.780;2024-03-02T09:55:59;60.95;;;36.28;;
57826;SDS011;43656;57.746;11.780;2024-03-02T09:58:25;58.28;;;35.55;;
57826;SDS011;43656;57.746;11.780;2024-03-02T10:00:51;63.22;;;37.67;;
57826;SDS011;43656;57.746;11.780;2024-03-02T10:03:18;65.63;;;37.22;;
57826;SDS011;43656;57.746;11.780;2024-03-02T10:05:44;61.55;;;36.85;;
57826;SDS011;43656;57.746;11.780;2024-03-02T10:08:11;64.65;;;38.72;;
57826;SDS011;43656;57.746;11.780;2024-03-02T10:10:37;62.08;;;36.45;;
57826;SDS011;43656;57.746;11.780;2024-03-02T10:13:08;63.33;;;36.75;;
57826;SDS011;43656;57.746;11.780;2024-03-02T10:15:37;62.58;;;38.08;;
57826;SDS011;43656;57.746;11.780;2024-03-02T10:18:05;59.72;;;36.90;;
57826;SDS011;43656;57.746;11.780;2024-03-02T10:20:34;66.38;;;39.75;;
57826;SDS011;43656;57.746;11.780;2024-03-02T10:23:09;74.55;;;44.33;;
57826;SDS011;43656;57.746;11.780;2024-03-02T10:25:39;68.20;;;41.10;;
57826;SDS011;43656;57.746;11.780;2024-03-02T10:28:05;74.57;;;46.47;;
57826;SDS011;43656;57.746;11.780;2024-03-02T10:30:31;59.35;;;38.42;;
57826;SDS011;43656;57.746;11.780;2024-03-02T10:32:57;67.07;;;40.22;;
57826;SDS011;43656;57.746;11.780;2024-03-02T10:35:22;65.03;;;40.95;;
57826;SDS011;43656;57.746;11.780;2024-03-02T10:37:49;72.30;;;43.40;;
57826;SDS011;43656;57.746;11.780;2024-03-02T10:40:15;89.05;;;52.80;;
57826;SDS011;43656;57.746;11.780;2024-03-02T10:42:43;108.28;;;59.25;;
57826;SDS011;43656;57.746;11.780;2024-03-02T10:45:10;164.10;;;87.53;;
57826;SDS011;43656;57.746;11.780;2024-03-02T10:47:37;81.80;;;45.67;;
57826;SDS011;43656;57.746;11.780;2024-03-02T10:50:06;93.38;;;54.95;;
57826;SDS011;43656;57.746;11.780;2024-03-02T10:52:34;113.82;;;68.90;;
57826;SDS011;43656;57.746;11.780;2024-03-02T10:55:00;96.95;;;62.30;;
57826;SDS011;43656;57.746;11.780;2024-03-02T10:57:25;81.95;;;49.67;;
57826;SDS011;43656;57.746;11.780;2024-03-02T10:59:57;76.82;;;46.13;;
57826;SDS011;43656;57.746;11.780;2024-03-02T11:02:28;70.97;;;42.60;;
57826;SDS011;43656;57.746;11.780;2024-03-02T11:04:56;72.95;;;42.60;;
57826;SDS011;43656;57.746;11.780;2024-03-02T11:07:28;72.57;;;42.08;;
57826;SDS011;43656;57.746;11.780;2024-03-02T11:09:56;73.00;;;42.65;;
57826;SDS011;43656;57.746;11.780;2024-03-02T11:12:29;69.70;;;42.78;;
57826;SDS011;43656;57.746;11.780;2024-03-02T11:14:56;68.22;;;42.13;;
57826;SDS011;43656;57.746;11.780;2024-03-02T11:17:23;69.45;;;42.67;;
57826;SDS011;43656;57.746;11.780;2024-03-02T11:19:51;72.10;;;42.40;;
57826;SDS011;43656;57.746;11.780;2024-03-02T11:22:17;70.57;;;42.22;;
57826;SDS011;43656;57.746;11.780;2024-03-02T11:24:52;66.15;;;40.78;;
57826;SDS011;43656;57.746;11.780;2024-03-02T11:38:02;63.83;;;39.67;;
57826;SDS011;43656;57.746;11.780;2024-03-02T11:40:28;63.58;;;38.72;;
57826;SDS011;43656;57.746;11.780;2024-03-02T11:42:55;60.45;;;37.67;;
57826;SDS011;43656;57.746;11.780;2024-03-02T11:45:25;60.80;;;37.78;;
57826;SDS011;43656;57.746;11.780;2024-03-02T11:47:51;59.72;;;37.40;;
57826;SDS011;43656;57.746;11.780;2024-03-02T11:51:01;55.47;;;35.38;;
57826;SDS011;43656;57.746;11.780;2024-03-02T11:53:11;54.38;;;35.03;;
57826;SDS011;43656;57.746;11.780;2024-03-02T11:55:38;55.40;;;35.20;;
57826;SDS011;43656;57.746;11.780;2024-03-02T11:58:06;53.78;;;33.60;;
57826;SDS011;43656;57.746;11.780;2024-03-02T12:00:32;53.22;;;33.55;;
57826;SDS011;43656;57.746;11.780;2024-03-02T12:05:30;48.88;;;31.73;;
57826;SDS011;43656;57.746;11.780;2024-03-02T12:07:56;47.63;;;30.85;;
57826;SDS011;43656;57.746;11.780;2024-03-02T12:10:23;46.97;;;31.77;;
57826;SDS011;43656;57.746;11.780;2024-03-02T12:12:54;43.53;;;30.02;;
57826;SDS011;43656;57.746;11.780;2024-03-02T12:15:22;43.70;;;29.60;;
57826;SDS011;43656;57.746;11.780;2024-03-02T12:17:52;43.03;;;27.70;;
57826;SDS011;43656;57.746;11.780;2024-03-02T12:20:22;38.97;;;26.10;;
57826;SDS011;43656;57.746;11.780;2024-03-02T12:22:49;39.10;;;26.52;;
57826;SDS011;43656;57.746;11.780;2024-03-02T12:25:20;40.00;;;27.05;;
57826;SDS011;43656;57.746;11.780;2024-03-02T12:27:49;36.40;;;25.58;;
57826;SDS011;43656;57.746;11.780;2024-03-02T12:30:17;38.35;;;25.48;;
57826;SDS011;43656;57.746;11.780;2024-03-02T12:32:43;33.65;;;24.10;;
57826;SDS011;43656;57.746;11.780;2024-03-02T12:35:10;30.70;;;22.90;;
57826;SDS011;43656;57.746;11.780;2024-03-02T12:37:49;33.35;;;24.05;;
57826;SDS011;43656;57.746;11.780;2024-03-02T12:40:16;30.50;;;23.15;;
57826;SDS011;43656;57.746;11.780;2024-03-02T12:42:43;31.70;;;22.65;;
57826;SDS011;43656;57.746;11.780;2024-03-02T12:45:10;31.48;;;21.00;;
57826;SDS011;43656;57.746;11.780;2024-03-02T12:47:36;26.02;;;20.55;;
57826;SDS011;43656;57.746;11.780;2024-03-02T12:50:04;29.33;;;20.70;;
57826;SDS011;43656;57.746;11.780;2024-03-02T12:52:30;29.05;;;20.50;;
57826;SDS011;43656;57.746;11.780;2024-03-02T12:54:58;28.13;;;20.38;;
57826;SDS011;43656;57.746;11.780;2024-03-02T12:57:31;27.20;;;19.55;;
57826;SDS011;43656;57.746;11.780;2024-03-02T13:00:05;25.30;;;19.85;;
57826;SDS011;43656;57.746;11.780;2024-03-02T13:02:36;25.98;;;19.27;;
57826;SDS011;43656;57.746;11.780;2024-03-02T13:05:04;24.45;;;18.98;;
57826;SDS011;43656;57.746;11.780;2024-03-02T13:07:31;22.75;;;18.70;;
57826;SDS011;43656;57.746;11.780;2024-03-02T13:09:58;26.13;;;18.65;;
57826;SDS011;43656;57.746;11.780;2024-03-02T13:12:26;22.20;;;17.20;;
57826;SDS011;43656;57.746;11.780;2024-03-02T13:14:52;20.95;;;16.63;;
57826;SDS011;43656;57.746;11.780;2024-03-02T13:17:18;19.20;;;15.00;;
57826;SDS011;43656;57.746;11.780;2024-03-02T13:19:55;21.48;;;16.35;;
57826;SDS011;43656;57.746;11.780;2024-03-02T13:22:22;20.17;;;16.17;;
57826;SDS011;43656;57.746;11.780;2024-03-02T13:24:48;16.73;;;14.23;;
57826;SDS011;43656;57.746;11.780;2024-03-02T13:27:14;17.58;;;15.00;;
57826;SDS011;43656;57.746;11.780;2024-03-02T13:29:41;16.98;;;14.25;;
57826;SDS011;43656;57.746;11.780;2024-03-02T13:32:07;18.80;;;14.77;;
57826;SDS011;43656;57.746;11.780;2024-03-02T13:34:34;19.65;;;15.38;;
57826;SDS011;43656;57.746;11.780;2024-03-02T13:37:00;16.60;;;13.63;;
57826;SDS011;43656;57.746;11.780;2024-03-02T13:39:27;18.38;;;14.48;;
57826;SDS011;43656;57.746;11.780;2024-03-02T13:41:52;18.33;;;14.50;;
57826;SDS011;43656;57.746;11.780;2024-03-02T13:44:22;15.77;;;13.40;;
57826;SDS011;43656;57.746;11.780;2024-03-02T13:46:48;15.48;;;12.30;;
57826;SDS011;43656;57.746;11.780;2024-03-02T13:49:14;17.30;;;12.02;;
57826;SDS011;43656;57.746;11.780;2024-03-02T13:51:39;12.55;;;11.27;;
57826;SDS011;43656;57.746;11.780;2024-03-02T13:54:05;13.73;;;11.50;;
57826;SDS011;43656;57.746;11.780;2024-03-02T13:56:30;12.38;;;10.70;;
57826;SDS011;43656;57.746;11.780;2024-03-02T13:58:57;12.80;;;10.90;;
57826;SDS011;43656;57.746;11.780;2024-03-02T14:01:22;12.48;;;10.48;;
57826;SDS011;43656;57.746;11.780;2024-03-02T14:03:48;13.77;;;10.50;;
57826;SDS011;43656;57.746;11.780;2024-03-02T14:06:13;12.40;;;10.60;;
57826;SDS011;43656;57.746;11.780;2024-03-02T14:08:39;10.95;;;9.73;;
57826;SDS011;43656;57.746;11.780;2024-03-02T14:11:04;10.85;;;9.75;;
57826;SDS011;43656;57.746;11.780;2024-03-02T14:13:29;12.02;;;10.73;;
57826;SDS011;43656;57.746;11.780;2024-03-02T14:15:55;12.40;;;10.95;;
57826;SDS011;43656;57.746;11.780;2024-03-02T14:18:20;12.32;;;10.23;;
57826;SDS011;43656;57.746;11.780;2024-03-02T14:20:46;13.30;;;10.98;;
57826;SDS011;43656;57.746;11.780;2024-03-02T14:23:17;11.18;;;9.65;;
57826;SDS011;43656;57.746;11.780;2024-03-02T14:25:44;14.15;;;9.57;;